Time;durP1;ratioP1;P1;durP2;ratioP2;P2;SDS_P1;SDS_P2;PMS_P1;PMS_P2;Temp;Humidity;BMP_temperature;BMP_pressure;BME280_temperature;BME280_humidity;BME280_pressure;Samples;Min_cycle;Max_cycle;Signal;HPM_P1;HPM_P2
2023/10/16 00:01:03;;;;;;;4.83;0.70;;;13.20;91.70;;;13.41;57.50;94845.88;5005083;28;20870;-65
2023/10/16 00:03:31;;;;;;;0.90;0.77;;;13.10;91.40;;;13.40;57.96;94840.75;5001740;28;20449;-65
2023/10/16 00:05:59;;;;;;;0.80;0.70;;;13.10;91.50;;;13.38;57.97;94837.44;5001350;28;20473;-66
2023/10/16 00:08:26;;;;;;;0.93;0.70;;;13.10;91.60;;;13.34;57.63;94854.59;5006912;28;20453;-61
2023/10/16 00:10:58;;;;;;;5.53;0.80;;;13.10;91.40;;;13.31;57.50;94855.72;5001839;28;20898;-66
2023/10/16 00:13:27;;;;;;;0.90;0.70;;;13.10;91.50;;;13.25;58.19;94849.25;5004095;28;20453;-62
2023/10/16 00:15:55;;;;;;;0.90;0.77;;;13.00;91.70;;;13.20;57.87;94855.97;5001113;28;20474;-65
2023/10/16 00:18:24;;;;;;;1.83;1.50;;;12.90;91.50;;;13.15;58.13;94864.41;5002461;28;21015;-66
2023/10/16 00:20:52;;;;;;;1.20;0.87;;;12.90;91.50;;;13.14;57.76;94859.25;5003132;28;21024;-60
2023/10/16 00:23:24;;;;;;;0.97;0.87;;;12.90;91.50;;;13.15;58.26;94867.03;5003625;28;20658;-61
2023/10/16 00:25:51;;;;;;;1.10;1.00;;;12.90;91.90;;;13.14;58.11;94870.66;5004081;28;20595;-66
2023/10/16 00:28:22;;;;;;;2.50;0.80;;;12.90;91.80;;;13.09;58.28;94883.50;5000547;28;20557;-60
2023/10/16 00:30:51;;;;;;;1.50;1.20;;;12.90;91.90;;;13.06;57.98;94899.66;5002298;28;20852;-65
2023/10/16 00:33:18;;;;;;;1.10;1.00;;;12.80;91.70;;;13.06;58.05;94904.94;4997335;28;20535;-61
2023/10/16 00:35:46;;;;;;;1.00;0.80;;;12.80;91.80;;;13.02;57.65;94903.56;5009121;28;20453;-61
2023/10/16 00:38:13;;;;;;;1.00;0.90;;;12.80;91.50;;;13.03;57.55;94915.81;5004536;28;20458;-61
2023/10/16 00:40:44;;;;;;;1.20;1.10;;;12.80;91.40;;;13.02;57.90;94914.94;5004426;28;20521;-61
2023/10/16 00:43:20;;;;;;;1.10;1.00;;;12.80;91.70;;;13.03;57.68;94910.53;5008807;28;20555;-59
2023/10/16 00:45:52;;;;;;;2.20;1.03;;;12.80;91.50;;;13.05;58.17;94917.28;4999119;28;20445;-60
2023/10/16 00:48:19;;;;;;;1.13;0.90;;;12.80;91.60;;;13.06;58.14;94921.59;5003943;28;20447;-66
2023/10/16 00:50:48;;;;;;;0.90;0.90;;;12.80;91.80;;;13.06;57.34;94929.50;5000994;28;20873;-65
2023/10/16 00:53:20;;;;;;;1.10;1.00;;;12.80;91.30;;;13.05;57.67;94924.38;4996951;28;20490;-65
2023/10/16 00:55:48;;;;;;;2.60;1.47;;;12.80;91.50;;;13.05;57.91;94927.03;5004473;28;21039;-60
2023/10/16 00:58:16;;;;;;;5.33;1.40;;;12.80;91.80;;;13.03;58.04;94929.00;5004960;28;20464;-61
2023/10/16 01:00:45;;;;;;;1.60;1.50;;;12.80;91.70;;;13.03;57.63;94926.38;5004898;28;20454;-65
2023/10/16 01:03:14;;;;;;;1.87;1.77;;;12.80;91.60;;;13.02;57.76;94936.06;4997787;28;20458;-63
2023/10/16 01:05:42;;;;;;;1.80;1.70;;;12.80;91.50;;;13.00;57.40;94942.50;5003704;28;20454;-60
2023/10/16 01:08:10;;;;;;;2.47;2.27;;;12.70;91.30;;;12.99;57.26;94946.13;5003705;28;20494;-59
2023/10/16 01:10:40;;;;;;;3.23;2.50;;;12.70;91.20;;;12.97;57.33;94948.91;5007305;28;20453;-64
2023/10/16 01:13:12;;;;;;;4.70;2.50;;;12.70;91.10;;;12.98;57.28;94950.59;5000214;28;20462;-64
2023/10/16 01:15:46;;;;;;;3.00;2.80;;;12.70;91.10;;;12.97;57.92;94937.53;5003624;28;20474;-65
2023/10/16 01:18:15;;;;;;;2.90;2.70;;;12.70;91.60;;;12.95;57.55;94936.84;4998671;28;20529;-60
2023/10/16 01:20:48;;;;;;;2.80;2.70;;;12.70;91.40;;;12.93;57.91;94944.09;5001253;28;20505;-64
2023/10/16 01:23:19;;;;;;;2.83;2.53;;;12.70;92.10;;;12.90;57.62;94964.53;5000241;28;20968;-65
2023/10/16 01:25:48;;;;;;;2.80;2.47;;;12.70;91.50;;;12.90;57.47;94969.81;5000658;28;20553;-61
2023/10/16 01:28:16;;;;;;;3.13;3.03;;;12.70;91.40;;;12.89;57.78;94965.50;5002284;28;20626;-66
2023/10/16 01:30:45;;;;;;;3.10;2.53;;;12.70;91.50;;;12.87;57.59;94958.72;5001453;28;20462;-61
2023/10/16 01:33:16;;;;;;;3.80;3.47;;;12.60;91.50;;;12.90;57.33;94969.81;5001205;28;20783;-60
2023/10/16 01:35:43;;;;;;;5.93;3.60;;;12.70;91.40;;;12.92;57.59;94969.66;5004458;28;20481;-61
2023/10/16 01:38:16;;;;;;;4.13;3.50;;;12.70;91.40;;;12.96;57.31;94978.09;5007870;28;20450;-66
2023/10/16 01:40:47;;;;;;;4.30;3.57;;;12.70;91.30;;;12.96;57.52;94962.28;5000359;28;20516;-64
2023/10/16 01:43:15;;;;;;;6.97;4.10;;;12.70;91.40;;;12.95;57.67;94973.78;4999456;28;20466;-60
2023/10/16 01:45:50;;;;;;;6.60;3.60;;;12.70;91.40;;;12.91;57.37;94976.75;5006670;28;20446;-59
2023/10/16 01:48:20;;;;;;;5.43;4.77;;;12.70;91.30;;;12.89;58.24;94986.63;5000961;28;20454;-62
2023/10/16 01:50:49;;;;;;;5.37;4.83;;;12.70;92.00;;;12.84;57.31;94986.25;5002902;28;20667;-61
2023/10/16 01:53:20;;;;;;;5.30;4.90;;;12.60;91.40;;;12.76;57.47;95002.00;5001120;28;20482;-65
2023/10/16 01:55:54;;;;;;;5.53;4.93;;;12.60;91.80;;;12.71;57.47;94999.00;5006326;28;20449;-60
2023/10/16 01:58:23;;;;;;;5.13;4.70;;;12.50;91.20;;;12.68;57.92;95001.94;4996783;28;20455;-63
2023/10/16 02:00:52;;;;;;;4.50;4.20;;;12.50;91.50;;;12.67;57.13;95010.81;5000506;28;20557;-65
2023/10/16 02:03:22;;;;;;;5.10;4.53;;;12.50;91.10;;;12.66;57.19;95012.63;5002691;28;20913;-66
2023/10/16 02:05:50;;;;;;;4.93;4.43;;;12.40;91.00;;;12.62;57.30;95018.34;4999860;28;20469;-61
2023/10/16 02:08:20;;;;;;;4.30;4.00;;;12.40;91.00;;;12.61;57.12;95011.41;4998918;28;20469;-61
2023/10/16 02:10:48;;;;;;;3.97;3.40;;;12.40;90.80;;;12.58;56.94;95011.72;5005288;28;20588;-60
2023/10/16 02:13:17;;;;;;;3.93;3.40;;;12.40;90.50;;;12.56;56.49;95014.50;5003839;28;20832;-65
2023/10/16 02:15:44;;;;;;;4.23;3.93;;;12.30;90.20;;;12.51;56.36;95022.03;4998568;28;20457;-60
2023/10/16 02:18:18;;;;;;;5.67;3.90;;;12.30;90.10;;;12.49;56.70;95018.72;5001109;28;20461;-60
2023/10/16 02:20:46;;;;;;;4.63;4.33;;;12.30;90.10;;;12.47;56.26;95010.97;5001737;28;20449;-60
2023/10/16 02:23:13;;;;;;;5.93;3.70;;;12.30;90.10;;;12.46;56.39;95009.28;4998463;28;20494;-64
2023/10/16 02:25:40;;;;;;;4.20;3.67;;;12.30;89.90;;;12.48;56.17;95014.41;5004165;28;20875;-61
2023/10/16 02:28:08;;;;;;;3.70;3.40;;;12.30;89.40;;;12.48;55.62;95023.16;5002246;28;20458;-64
2023/10/16 02:30:41;;;;;;;3.40;3.20;;;12.30;89.00;;;12.49;55.77;95024.81;5002836;28;20489;-65
2023/10/16 02:33:13;;;;;;;4.50;4.10;;;12.30;88.60;;;12.51;55.17;95017.56;4998023;28;20461;-65
2023/10/16 02:35:48;;;;;;;4.20;3.40;;;12.30;87.80;;;12.51;55.38;95025.50;5002532;28;20450;-62
2023/10/16 02:38:23;;;;;;;3.60;3.40;;;12.30;87.40;;;12.49;55.29;95035.38;4998812;28;20515;-61
2023/10/16 02:40:53;;;;;;;7.30;2.97;;;12.30;87.30;;;12.49;55.32;95032.72;5001468;28;20683;-60
2023/10/16 02:43:21;;;;;;;4.10;3.80;;;12.30;87.10;;;12.49;55.30;95029.28;4998051;28;20497;-59
2023/10/16 02:45:52;;;;;;;5.43;3.80;;;12.30;87.00;;;12.50;55.08;95036.19;4997554;28;20478;-64
2023/10/16 02:48:21;;;;;;;4.30;4.00;;;12.30;87.00;;;12.51;54.96;95036.03;4997719;28;20500;-61
2023/10/16 02:50:53;;;;;;;2.87;2.67;;;12.30;86.50;;;12.53;54.70;95030.63;5000199;28;20485;-64
2023/10/16 02:53:22;;;;;;;3.67;3.47;;;12.30;86.50;;;12.51;54.84;95033.41;5006215;28;20523;-61
2023/10/16 02:56:03;;;;;;;4.23;3.90;;;12.30;86.40;;;12.51;55.03;95029.94;5005366;28;20477;-65
2023/10/16 02:58:30;;;;;;;3.57;3.23;;;12.30;86.10;;;12.47;54.79;95047.88;4998688;28;20446;-61
2023/10/16 03:01:05;;;;;;;4.20;3.90;;;12.20;85.50;;;12.41;54.68;95037.06;5005137;28;20476;-61
2023/10/16 03:03:33;;;;;;;5.43;3.77;;;12.20;85.50;;;12.34;54.83;95042.13;4999956;28;20508;-65
2023/10/16 03:06:00;;;;;;;3.20;2.97;;;12.10;85.60;;;12.30;55.01;95051.28;5000514;28;20500;-66
2023/10/16 03:08:30;;;;;;;3.27;2.97;;;12.10;86.00;;;12.30;55.08;95067.97;4999725;28;20520;-60
2023/10/16 03:11:05;;;;;;;3.30;3.00;;;12.10;86.10;;;12.29;55.26;95062.84;5003708;28;20474;-64
2023/10/16 03:13:35;;;;;;;3.50;3.30;;;12.10;86.10;;;12.28;54.88;95061.16;5003135;28;20875;-69
2023/10/16 03:16:07;;;;;;;6.23;3.13;;;12.10;85.70;;;12.28;54.83;95083.06;5003913;28;20544;-65
2023/10/16 03:18:35;;;;;;;5.63;3.63;;;12.10;85.60;;;12.28;54.57;95079.63;4998398;28;20470;-63
2023/10/16 03:21:26;;;;;;;4.20;3.80;;;12.10;85.50;;;12.30;54.96;95082.94;5000660;28;20531;-67
2023/10/16 03:23:53;;;;;;;6.70;4.83;;;12.10;85.30;;;12.32;54.55;95081.00;5003779;28;20446;-64
2023/10/16 03:26:25;;;;;;;4.40;4.10;;;12.10;85.10;;;12.32;54.40;95087.09;5006789;28;20473;-61
2023/10/16 03:28:53;;;;;;;11.30;3.77;;;12.10;85.10;;;12.35;54.90;95096.53;4997171;28;20450;-65
2023/10/16 03:31:21;;;;;;;3.40;3.20;;;12.10;85.00;;;12.34;54.37;95074.59;5004057;28;20478;-66
2023/10/16 03:33:49;;;;;;;4.30;4.00;;;12.10;84.50;;;12.35;54.36;95067.53;5001632;28;20942;-60
2023/10/16 03:36:17;;;;;;;4.23;3.57;;;12.10;84.60;;;12.34;54.52;95073.75;5006681;28;21040;-65
2023/10/16 03:38:45;;;;;;;4.10;3.50;;;12.10;84.30;;;12.33;54.62;95078.22;4999870;28;20454;-65
2023/10/16 03:41:24;;;;;;;5.07;3.50;;;12.10;84.10;;;12.31;54.21;95076.69;4997567;28;20470;-61
2023/10/16 03:43:56;;;;;;;4.63;4.23;;;12.10;84.10;;;12.30;54.47;95067.13;4994616;28;20536;-60
2023/10/16 03:46:26;;;;;;;4.27;3.97;;;12.10;84.30;;;12.28;54.38;95069.91;4995341;28;20565;-61
2023/10/16 03:48:54;;;;;;;3.70;3.50;;;12.10;84.70;;;12.27;54.28;95083.22;4999054;28;20480;-61
2023/10/16 03:51:22;;;;;;;5.60;5.20;;;12.10;84.10;;;12.25;54.19;95091.28;5003384;28;20986;-60
2023/10/16 03:53:52;;;;;;;7.07;3.83;;;12.10;84.50;;;12.26;54.31;95089.50;5004501;28;20535;-62
2023/10/16 03:56:19;;;;;;;3.80;3.47;;;12.10;84.50;;;12.26;54.25;95092.13;4995464;28;20474;-60
2023/10/16 03:58:47;;;;;;;4.20;3.90;;;12.00;84.00;;;12.27;54.05;95096.41;4998731;28;20888;-66
2023/10/16 04:01:20;;;;;;;5.23;4.03;;;12.00;84.00;;;12.28;54.16;95084.91;4996770;28;20474;-60
2023/10/16 04:03:50;;;;;;;7.70;4.40;;;12.00;84.00;;;12.30;54.40;95096.97;4996181;28;20474;-61
2023/10/16 04:06:20;;;;;;;6.93;4.10;;;12.10;84.10;;;12.32;54.45;95102.09;4999823;28;20551;-65
2023/10/16 04:08:47;;;;;;;3.57;3.27;;;12.10;84.10;;;12.30;53.86;95101.41;5004443;28;20453;-66
2023/10/16 04:11:15;;;;;;;5.53;3.40;;;12.10;83.60;;;12.27;53.92;95093.78;4998451;28;20840;-65
2023/10/16 04:13:47;;;;;;;16.80;3.70;;;12.10;83.40;;;12.26;55.24;95092.13;4999472;28;20453;-62
2023/10/16 04:16:30;;;;;;;3.50;3.20;;;12.10;85.30;;;12.31;54.76;95101.25;4998927;28;20540;-63
2023/10/16 04:19:34;;;;;;;3.50;3.30;;;12.10;85.90;;;12.41;55.32;95117.06;4997256;28;20870;-62
2023/10/16 04:21:57;;;;;;;4.67;3.67;;;12.20;86.50;;;12.47;55.09;95121.75;5000957;28;20843;-62
2023/10/16 04:24:40;;;;;;;4.60;3.90;;;12.20;87.20;;;12.53;54.57;95131.72;5003649;28;20468;-62
2023/10/16 04:33:13;;;;;;;8.40;4.00;;;12.30;84.60;;;12.67;54.11;95143.63;5119431;27;20518;-63
2023/10/16 04:36:52;;;;;;;4.60;4.20;;;12.40;84.60;;;12.76;54.13;95152.44;5092206;28;20478;-63
2023/10/16 04:38:55;;;;;;;23.63;6.20;;;12.50;84.50;;;12.81;53.88;95159.94;5088736;28;20492;-63
2023/10/16 04:47:00;;;;;;;6.27;3.43;;;12.60;82.00;;;12.76;53.21;95168.28;5093643;28;20532;-61
2023/10/16 04:49:28;;;;;;;6.30;4.57;;;12.60;81.90;;;12.70;52.87;95164.44;5095202;28;20472;-59
2023/10/16 04:52:01;;;;;;;4.23;3.70;;;12.50;81.40;;;12.65;53.29;95166.66;5095510;28;20516;-59
2023/10/16 04:54:57;;;;;;;8.10;3.80;;;12.40;81.70;;;12.61;53.00;95183.78;5097463;28;20473;-59
2023/10/16 05:00:28;;;;;;;3.00;2.80;;;12.40;81.50;;;12.56;53.28;95193.91;5091213;28;20872;-61
2023/10/16 05:03:21;;;;;;;8.70;3.90;;;12.40;81.80;;;12.52;53.25;95205.75;5079689;28;20442;-59
2023/10/16 05:06:03;;;;;;;6.57;3.67;;;12.30;82.00;;;12.52;53.72;95205.75;5088898;28;20435;-62
2023/10/16 05:08:59;;;;;;;4.80;3.93;;;12.40;82.30;;;12.57;53.66;95227.25;5092225;28;20438;-62
2023/10/16 05:11:27;;;;;;;9.90;4.40;;;12.40;82.80;;;12.63;53.40;95221.41;5079718;28;20481;-61
2023/10/16 05:14:19;;;;;;;8.23;3.87;;;12.40;82.60;;;12.64;52.82;95220.44;5085314;28;20967;-65
2023/10/16 05:16:49;;;;;;;4.83;4.27;;;12.40;81.20;;;12.62;52.46;95234.75;5090081;28;20556;-65
2023/10/16 05:19:43;;;;;;;3.70;3.40;;;12.40;79.90;;;12.56;52.44;95238.78;5088509;28;20491;-60
2023/10/16 06:14:34;;;;;;;14.47;2.50;;;12.10;76.90;;;12.55;51.49;95303.91;5080293;28;20441;-59
2023/10/16 06:17:12;;;;;;;5.20;3.03;;;12.30;77.20;;;12.86;50.81;95319.56;5082727;28;20850;-60
2023/10/16 06:19:42;;;;;;;5.10;2.70;;;12.50;76.70;;;13.17;50.17;95319.31;5077575;28;20443;-65
2023/10/16 06:22:10;;;;;;;3.47;2.10;;;12.80;75.80;;;13.44;49.60;95333.56;5081783;28;20474;-64
2023/10/16 06:24:42;;;;;;;6.50;2.30;;;13.10;74.80;;;13.84;49.33;95337.66;5079896;28;20455;-65
2023/10/16 06:27:10;;;;;;;10.00;1.87;;;13.40;74.20;;;14.39;48.49;95341.19;5082069;28;20544;-66
2023/10/16 06:29:41;;;;;;;5.60;2.70;;;13.90;73.00;;;14.75;45.32;95342.03;5081002;28;20455;-60
2023/10/16 06:32:18;;;;;;;9.30;2.70;;;14.20;68.20;;;14.79;45.60;95340.72;5083609;28;20577;-65
2023/10/16 06:34:46;;;;;;;6.80;1.70;;;14.40;67.40;;;14.71;44.62;95345.97;5079928;28;20442;-60
2023/10/16 06:37:16;;;;;;;10.53;2.20;;;14.40;65.20;;;14.64;46.50;95339.59;5082041;28;20474;-59
2023/10/16 06:39:45;;;;;;;5.37;2.77;;;14.40;67.40;;;14.62;46.68;95339.75;5079319;28;20505;-65
2023/10/16 06:42:17;;;;;;;5.00;2.00;;;14.40;67.90;;;14.59;46.24;95341.84;5082072;28;20486;-63
2023/10/16 06:44:50;;;;;;;7.30;2.80;;;14.30;67.20;;;14.55;46.15;95341.34;5075231;28;20531;-64
2023/10/16 06:47:17;;;;;;;12.10;2.07;;;14.30;67.30;;;14.49;45.34;95341.94;5079090;28;20462;-59
2023/10/16 06:49:46;;;;;;;12.10;2.57;;;14.30;65.60;;;14.40;46.01;95356.09;5082249;28;20446;-64
2023/10/16 06:52:13;;;;;;;5.47;2.53;;;14.20;66.10;;;14.28;45.51;95356.31;5079155;28;20857;-65
2023/10/16 06:54:41;;;;;;;6.20;2.00;;;14.10;65.40;;;14.17;45.90;95367.09;5081912;28;20450;-65
2023/10/16 06:57:12;;;;;;;10.90;2.20;;;14.00;65.80;;;14.12;46.75;95361.44;5078528;28;20475;-64
2023/10/16 06:59:40;;;;;;;5.83;2.33;;;13.90;66.30;;;14.15;46.48;95366.44;5081872;28;20435;-64
2023/10/16 07:02:15;;;;;;;4.23;1.80;;;13.90;66.60;;;14.45;47.19;95367.03;5079362;28;20483;-60
2023/10/16 07:04:44;;;;;;;6.30;1.90;;;14.20;67.90;;;15.14;46.20;95362.00;5081541;28;20445;-65
2023/10/16 07:07:15;;;;;;;4.07;2.20;;;14.70;67.00;;;16.03;43.82;95362.59;5079020;28;20470;-65
2023/10/16 07:09:47;;;;;;;8.67;1.80;;;15.50;63.50;;;16.94;42.39;95356.44;5082294;28;20504;-65
2023/10/16 07:12:16;;;;;;;3.03;1.60;;;16.40;62.90;;;17.74;40.30;95357.44;5085658;28;20494;-60
2023/10/16 07:14:55;;;;;;;7.13;1.70;;;17.30;59.50;;;18.49;39.39;95347.25;5080204;28;20457;-61
2023/10/16 07:17:24;;;;;;;4.90;1.40;;;18.10;57.40;;;19.17;38.36;95345.56;5074623;28;20462;-60
2023/10/16 07:19:57;;;;;;;4.60;1.53;;;18.90;55.40;;;19.79;40.35;95348.94;5074897;28;20470;-64
2023/10/16 07:22:31;;;;;;;7.43;1.70;;;19.50;58.70;;;20.51;39.62;95345.47;5075540;28;20482;-61
2023/10/16 07:25:02;;;;;;;6.27;1.60;;;20.20;58.00;;;21.31;35.88;95353.38;5081181;28;20442;-64
2023/10/16 07:27:31;;;;;;;7.40;1.60;;;21.00;54.30;;;21.93;37.03;95354.38;5080004;28;20528;-61
2023/10/16 07:29:59;;;;;;;4.83;1.73;;;21.70;53.30;;;22.49;35.79;95363.28;5079869;28;20833;-65
2023/10/16 07:32:27;;;;;;;3.47;1.50;;;22.30;53.20;;;23.00;34.82;95356.56;5080340;28;21042;-65
2023/10/16 07:34:54;;;;;;;1.57;1.40;;;22.90;51.50;;;23.47;34.49;95354.75;5080749;28;20545;-65
2023/10/16 07:37:21;;;;;;;4.67;1.80;;;23.40;51.30;;;23.92;31.48;95351.34;5080177;28;20503;-64
2023/10/16 07:39:49;;;;;;;7.13;1.83;;;23.90;47.40;;;24.20;31.72;95356.44;5078361;28;20474;-61
2023/10/16 07:42:16;;;;;;;13.23;2.00;;;24.20;47.00;;;24.34;29.36;95362.59;5078335;28;21024;-60
2023/10/16 07:44:45;;;;;;;3.20;1.97;;;24.50;43.90;;;24.33;32.52;95356.38;5081072;28;20485;-66
2023/10/16 07:47:14;;;;;;;9.20;1.30;;;24.50;47.40;;;24.51;31.56;95354.84;5079375;28;20478;-65
2023/10/16 07:49:42;;;;;;;11.20;1.80;;;24.50;47.00;;;24.70;31.10;95367.38;5080489;28;20534;-61
2023/10/16 07:52:09;;;;;;;5.00;1.50;;;24.60;46.50;;;24.86;31.01;95360.69;5079394;28;20556;-66
2023/10/16 07:54:36;;;;;;;5.40;1.53;;;24.60;46.70;;;24.86;30.95;95367.91;5080393;28;20537;-62
2023/10/16 07:57:04;;;;;;;8.23;1.80;;;24.60;45.90;;;24.78;29.76;95355.53;5078750;28;20642;-66
2023/10/16 07:59:35;;;;;;;2.33;1.60;;;24.50;43.30;;;24.61;29.80;95357.91;5080086;28;20950;-65
2023/10/16 08:02:08;;;;;;;3.57;1.67;;;24.40;43.90;;;24.48;30.68;95350.72;5079434;28;20800;-60
2023/10/16 08:04:37;;;;;;;13.83;1.90;;;24.20;44.80;;;24.56;30.61;95349.66;5080074;28;20442;-61
2023/10/16 08:07:09;;;;;;;18.77;1.90;;;24.10;44.80;;;24.66;28.79;95349.19;5079775;28;20994;-61
2023/10/16 08:09:57;;;;;;;7.93;1.57;;;24.20;42.50;;;24.73;29.75;95347.31;5078651;28;20469;-64
2023/10/16 08:15:15;;;;;;;11.47;1.90;;;24.40;44.50;;;25.33;29.16;95343.34;5077574;28;20440;-65
2023/10/16 08:17:45;;;;;;;4.00;1.53;;;24.70;44.30;;;25.59;29.40;95348.50;5074472;28;20500;-61
2023/10/16 08:20:18;;;;;;;9.73;1.97;;;24.90;44.00;;;25.89;28.71;95346.97;5081165;28;20454;-65
2023/10/16 08:22:47;;;;;;;4.83;1.70;;;25.20;43.30;;;25.96;25.84;95350.41;5079408;28;20470;-61
2023/10/16 08:25:30;;;;;;;15.20;2.27;;;25.40;39.30;;;25.75;27.39;95348.97;5080112;28;20530;-65
2023/10/16 08:28:18;;;;;;;4.83;1.57;;;25.20;40.90;;;25.65;27.61;95359.44;5080428;28;20546;-61
2023/10/16 08:30:52;;;;;;;4.20;1.87;;;25.20;41.60;;;25.80;27.68;95351.81;5077585;28;20473;-65
2023/10/16 08:33:28;;;;;;;4.27;2.00;;;25.20;41.70;;;25.88;27.49;95364.19;5079918;28;20492;-61
2023/10/16 08:35:59;;;;;;;3.83;1.57;;;25.30;41.10;;;26.02;27.96;95360.31;5073197;28;20466;-60
2023/10/16 08:38:26;;;;;;;5.23;1.80;;;25.40;41.60;;;26.09;27.11;95352.16;5073937;28;20530;-61
2023/10/16 08:41:06;;;;;;;3.30;1.70;;;25.60;40.40;;;26.07;27.14;95359.63;5073376;28;20470;-62
2023/10/16 08:43:39;;;;;;;2.23;1.80;;;25.60;40.60;;;26.14;27.08;95357.69;5077780;28;20450;-65
2023/10/16 08:46:18;;;;;;;3.73;1.67;;;25.60;40.60;;;26.15;24.27;95347.72;5081240;28;20464;-64
2023/10/16 08:48:48;;;;;;;2.13;1.60;;;25.60;36.70;;;25.92;25.47;95351.91;5081105;28;20441;-65
2023/10/16 08:51:18;;;;;;;1.70;1.17;;;25.40;38.50;;;25.74;26.53;95353.53;5073642;28;20474;-61
2023/10/16 08:53:45;;;;;;;2.10;1.37;;;25.30;39.30;;;25.86;26.00;95348.22;5073326;28;20567;-65
2023/10/16 08:56:17;;;;;;;5.30;1.60;;;25.30;39.20;;;26.01;26.51;95353.28;5073193;28;20764;-60
2023/10/16 08:58:45;;;;;;;4.57;1.77;;;25.40;39.60;;;26.17;26.48;95342.94;5073602;28;20451;-61
2023/10/16 09:01:14;;;;;;;3.97;2.00;;;25.60;39.50;;;26.36;25.73;95349.13;5080042;28;20522;-60
2023/10/16 09:03:46;;;;;;;3.00;1.80;;;25.70;38.60;;;26.58;25.68;95344.06;5076991;28;20462;-61
2023/10/16 09:06:22;;;;;;;6.97;1.30;;;25.90;39.00;;;26.75;25.18;95353.19;5079662;28;20561;-67
2023/10/16 09:08:50;;;;;;;9.70;2.07;;;26.10;38.50;;;26.93;25.63;95354.19;5079073;28;20445;-60
2023/10/16 09:11:18;;;;;;;2.70;1.33;;;26.30;38.50;;;27.03;25.18;95359.84;5079253;28;20518;-65
2023/10/16 09:13:50;;;;;;;3.10;1.10;;;26.40;37.90;;;27.04;25.00;95356.09;5078764;28;21037;-64
2023/10/16 09:16:20;;;;;;;9.50;1.97;;;26.50;37.60;;;27.06;24.10;95358.56;5078426;28;20473;-63
2023/10/16 09:18:48;;;;;;;6.50;1.80;;;26.50;36.30;;;27.11;25.20;95354.13;5081821;28;20486;-61
2023/10/16 09:21:22;;;;;;;4.60;1.40;;;26.60;37.30;;;27.19;24.88;95359.19;5081914;28;20473;-62
2023/10/16 09:23:58;;;;;;;3.73;1.23;;;26.60;37.20;;;27.18;24.77;95348.63;5084105;28;20436;-66
2023/10/16 09:26:28;;;;;;;5.50;1.77;;;26.70;37.30;;;27.19;24.50;95347.56;5077697;28;20476;-60
2023/10/16 09:29:04;;;;;;;6.63;1.57;;;26.70;37.10;;;27.15;24.88;95347.19;5083783;28;20472;-65
2023/10/16 09:31:31;;;;;;;9.93;2.20;;;26.70;37.00;;;27.18;24.93;95351.31;5081830;28;20531;-60
2023/10/16 09:33:59;;;;;;;4.47;1.50;;;26.70;37.30;;;27.22;25.03;95348.97;5081971;28;20517;-65
2023/10/16 09:36:29;;;;;;;2.87;1.57;;;26.70;37.30;;;27.25;24.76;95354.75;5081901;28;20474;-65
2023/10/16 09:39:00;;;;;;;7.07;1.83;;;26.70;37.20;;;27.26;24.33;95345.56;5082159;28;20438;-60
2023/10/16 09:41:38;;;;;;;8.17;1.70;;;26.70;36.20;;;27.18;24.63;95341.31;5086677;28;20470;-64
2023/10/16 09:44:09;;;;;;;3.63;1.63;;;26.70;37.10;;;27.08;24.49;95326.75;5079874;28;20541;-61
2023/10/16 09:46:55;;;;;;;5.80;1.30;;;26.70;36.30;;;26.98;24.47;95327.31;5077485;28;20993;-65
2023/10/16 09:49:23;;;;;;;2.13;1.50;;;26.60;36.50;;;26.86;24.66;95324.59;5074726;28;20445;-60
2023/10/16 09:51:51;;;;;;;5.13;1.73;;;26.50;36.60;;;26.74;23.91;95318.34;5082071;28;20458;-61
2023/10/16 09:54:21;;;;;;;7.00;1.87;;;26.30;35.50;;;26.58;24.62;95320.59;5081621;28;20483;-65
2023/10/16 09:56:49;;;;;;;5.37;1.90;;;26.20;36.90;;;26.51;24.77;95317.19;5082411;28;20506;-64
2023/10/16 09:59:26;;;;;;;5.37;1.40;;;26.10;36.90;;;26.52;24.41;95318.81;5081067;28;20456;-60
2023/10/16 10:01:55;;;;;;;3.60;1.73;;;26.00;36.80;;;26.60;25.29;95317.66;5083195;28;20472;-60
2023/10/16 10:04:24;;;;;;;3.13;1.30;;;26.10;36.90;;;26.64;24.69;95318.88;5079650;28;20485;-60
2023/10/16 10:06:55;;;;;;;3.73;1.47;;;26.10;36.90;;;26.63;24.60;95314.50;5075621;28;20582;-62
2023/10/16 10:09:40;;;;;;;1.80;1.40;;;26.20;37.00;;;26.51;24.08;95316.34;5076211;28;20852;-65
2023/10/16 10:12:23;;;;;;;3.67;2.03;;;26.10;35.80;;;26.24;22.95;95309.47;5080644;28;20486;-60
2023/10/16 10:15:07;;;;;;;1.60;1.03;;;25.90;34.80;;;25.75;23.93;95311.25;5076495;28;21038;-64
2023/10/16 10:17:34;;;;;;;2.67;1.50;;;25.40;35.70;;;25.43;24.67;95303.28;5081148;28;20484;-65
2023/10/16 10:20:08;;;;;;;2.70;1.30;;;25.10;36.70;;;25.41;25.12;95302.69;5081805;28;20557;-66
2023/10/16 10:22:35;;;;;;;1.87;1.53;;;25.00;37.60;;;25.37;25.12;95309.56;5080523;28;20552;-60
2023/10/16 10:25:22;;;;;;;5.37;1.87;;;24.90;37.30;;;25.26;24.18;95300.31;5082298;28;20454;-64
2023/10/16 10:27:50;;;;;;;4.13;1.67;;;24.80;36.10;;;25.08;25.32;95290.31;5078469;28;20474;-64
2023/10/16 10:30:19;;;;;;;8.13;1.30;;;24.70;37.20;;;25.08;25.54;95286.81;5078663;28;20981;-60
2023/10/16 10:32:55;;;;;;;1.80;1.33;;;24.60;37.40;;;25.14;25.03;95277.84;5081634;28;20596;-65
2023/10/16 10:35:26;;;;;;;2.00;1.57;;;24.70;37.70;;;25.19;25.52;95281.53;5081638;28;21080;-61
2023/10/16 10:38:17;;;;;;;3.23;1.17;;;24.70;37.60;;;25.25;25.03;95266.34;5080126;28;20462;-64
2023/10/16 10:41:16;;;;;;;1.80;1.67;;;24.70;37.40;;;25.30;25.01;95269.25;5079960;28;20809;-64
2023/10/16 10:43:48;;;;;;;6.80;1.60;;;24.80;37.70;;;25.31;24.85;95261.97;5075482;28;20446;-64
2023/10/16 10:46:24;;;;;;;3.10;1.10;;;24.80;37.20;;;25.26;24.90;95249.16;5080194;28;20580;-63
2023/10/16 10:48:54;;;;;;;1.60;1.40;;;24.80;37.50;;;25.17;24.18;95250.47;5079246;28;20937;-64
2023/10/16 10:51:21;;;;;;;2.50;1.37;;;24.70;35.50;;;24.86;24.84;95254.91;5075295;28;20474;-64
2023/10/16 10:53:55;;;;;;;5.80;1.53;;;24.50;36.00;;;24.54;25.29;95241.47;5075135;28;20501;-62
2023/10/16 10:56:30;;;;;;;5.47;2.13;;;24.20;36.40;;;24.37;25.20;95241.16;5077769;28;20568;-64
2023/10/16 10:58:59;;;;;;;8.17;1.50;;;24.00;37.10;;;24.32;25.25;95244.50;5081218;28;21050;-65
2023/10/16 11:01:34;;;;;;;1.80;1.40;;;23.90;36.70;;;24.19;25.86;95249.13;5081206;28;20539;-60
2023/10/16 11:04:09;;;;;;;3.80;1.30;;;23.80;37.20;;;24.11;25.72;95250.22;5079941;28;20453;-65
2023/10/16 11:06:42;;;;;;;1.80;1.33;;;23.70;38.00;;;24.08;25.52;95231.84;5082208;28;20981;-63
2023/10/16 11:09:18;;;;;;;12.23;1.60;;;23.60;37.50;;;23.99;25.97;95234.75;5075006;28;20443;-65
2023/10/16 11:11:47;;;;;;;2.93;1.20;;;23.60;37.70;;;23.94;25.60;95234.59;5076855;28;21064;-65
2023/10/16 11:14:15;;;;;;;8.70;1.57;;;23.50;37.90;;;23.91;25.94;95239.56;5081161;28;20489;-65
2023/10/16 11:16:45;;;;;;;1.97;1.77;;;23.40;38.00;;;23.89;26.52;95237.09;5079579;28;20481;-60
2023/10/16 11:19:23;;;;;;;28.93;1.83;;;23.40;38.20;;;23.82;25.76;95236.25;5081319;28;20803;-65
2023/10/16 11:21:50;;;;;;;7.80;1.80;;;23.30;37.60;;;23.65;25.59;95237.78;5081045;28;21017;-64
2023/10/16 11:24:18;;;;;;;9.60;1.60;;;23.20;37.70;;;23.53;25.75;95238.47;5079914;28;20533;-65
2023/10/16 11:26:47;;;;;;;3.83;1.40;;;23.10;37.80;;;23.44;25.99;95231.66;5081233;28;20475;-61
2023/10/16 11:29:14;;;;;;;2.70;1.37;;;23.00;37.80;;;23.34;26.81;95225.91;5082833;28;20451;-65
2023/10/16 11:31:44;;;;;;;2.37;1.30;;;22.90;38.60;;;23.30;26.35;95221.97;5079630;28;20489;-62
2023/10/16 11:34:14;;;;;;;1.70;0.90;;;22.90;38.10;;;23.30;26.12;95213.94;5078403;28;20490;-65
2023/10/16 11:36:42;;;;;;;4.13;1.47;;;22.80;37.90;;;23.20;25.91;95215.19;5081448;28;20481;-65
2023/10/16 11:39:16;;;;;;;2.77;1.30;;;22.80;37.90;;;22.94;26.20;95220.59;5079232;28;20454;-61
2023/10/16 11:41:44;;;;;;;6.30;1.93;;;22.60;38.10;;;22.77;27.18;95225.56;5081331;28;20469;-64
2023/10/16 11:44:14;;;;;;;3.40;1.73;;;22.40;38.60;;;22.71;27.04;95217.31;5078482;28;20454;-63
2023/10/16 11:46:46;;;;;;;2.70;1.50;;;22.30;38.80;;;22.66;26.55;95218.94;5078070;28;20537;-66